createdAt,value
2023-03-21T00:01:04.196Z,8.40
2023-03-21T00:04:07.054Z,8.88
2023-03-21T00:07:09.973Z,8.38
2023-03-21T00:10:18.095Z,8.70
2023-03-21T00:13:28.317Z,8.02
2023-03-21T00:16:33.371Z,8.85
2023-03-21T00:19:38.615Z,9.20
2023-03-21T00:22:42.093Z,8.25
2023-03-21T00:25:44.905Z,8.88
2023-03-21T00:28:47.699Z,8.45
2023-03-21T00:31:50.565Z,9.60
2023-03-21T00:35:21.427Z,8.88
2023-03-21T00:38:16.237Z,9.67
2023-03-21T00:44:42.974Z,8.75
2023-03-21T00:47:45.952Z,9.70
2023-03-21T00:50:52.467Z,9.40
2023-03-21T00:53:58.749Z,9.13
2023-03-21T00:57:05.379Z,9.15
2023-03-21T01:00:12.501Z,9.15
2023-03-21T01:03:24.499Z,9.00
2023-03-21T01:06:30.340Z,9.43
2023-03-21T01:09:33.242Z,9.73
2023-03-21T01:12:36.363Z,9.85
2023-03-21T01:15:48.173Z,8.88
2023-03-21T01:18:51.659Z,9.20
2023-03-21T01:21:55.903Z,9.93
2023-03-21T01:25:12.364Z,10.20
2023-03-21T01:28:26.080Z,9.80
2023-03-21T01:31:30.241Z,9.70
2023-03-21T01:34:33.056Z,9.75
2023-03-21T01:37:36.287Z,9.95
2023-03-21T01:40:40.876Z,10.02
2023-03-21T01:43:44.053Z,9.95
2023-03-21T01:47:11.537Z,9.73
2023-03-21T01:50:17.156Z,9.00
2023-03-21T01:53:24.029Z,9.52
2023-03-21T01:56:30.741Z,9.70
2023-03-21T01:59:54.573Z,10.07
2023-03-21T02:03:11.715Z,9.00
2023-03-21T02:06:30.340Z,9.65
2023-03-21T02:09:37.083Z,9.57
2023-03-21T02:12:40.615Z,9.77
2023-03-21T02:16:08.719Z,10.50
2023-03-21T02:19:39.249Z,9.68
2023-03-21T02:22:54.662Z,9.52
2023-03-21T02:26:16.784Z,10.57
2023-03-21T02:29:25.432Z,9.48
2023-03-21T02:32:53.121Z,9.73
2023-03-21T02:36:15.080Z,10.18
2023-03-21T02:39:48.689Z,9.00
2023-03-21T02:43:04.292Z,9.32
2023-03-21T02:46:33.394Z,9.20
2023-03-21T02:49:52.147Z,9.68
2023-03-21T02:52:56.993Z,9.95
2023-03-21T02:56:01.354Z,9.98
2023-03-21T02:59:07.902Z,9.13
2023-03-21T03:02:12.436Z,9.65
2023-03-21T03:05:21.899Z,9.35
2023-03-21T03:08:50.137Z,9.07
2023-03-21T03:12:09.271Z,8.32
2023-03-21T03:15:33.494Z,8.52
2023-03-21T03:18:48.919Z,8.73
2023-03-21T03:22:19.023Z,8.27
2023-03-21T03:25:53.869Z,8.00
2023-03-21T03:29:03.254Z,8.30
2023-03-21T03:32:19.145Z,8.50
2023-03-21T03:35:25.357Z,8.05
2023-03-21T03:38:31.085Z,7.93
2023-03-21T03:42:02.955Z,7.47
2023-03-21T03:45:06.008Z,7.87
2023-03-21T03:48:26.238Z,7.30
2023-03-21T03:51:40.362Z,7.45
2023-03-21T03:54:46.533Z,6.95
2023-03-21T03:57:50.092Z,6.90
2023-03-21T04:00:54.947Z,6.95
2023-03-21T04:04:10.576Z,7.12
2023-03-21T04:07:16.460Z,7.43
2023-03-21T04:10:21.968Z,6.90
2023-03-21T04:13:24.744Z,7.30
2023-03-21T04:16:34.548Z,7.18
2023-03-21T04:19:38.561Z,6.37
2023-03-21T04:25:55.854Z,6.97
2023-03-21T04:29:05.797Z,6.80
2023-03-21T04:32:19.768Z,6.55
2023-03-21T04:35:24.572Z,7.40
2023-03-21T04:38:30.866Z,6.82
2023-03-21T04:41:37.154Z,7.30
2023-03-21T04:44:40.980Z,7.03
2023-03-21T04:47:44.582Z,7.35
2023-03-21T04:50:47.934Z,7.18
2023-03-21T04:53:52.746Z,7.20
2023-03-21T04:56:55.287Z,7.45
2023-03-21T05:00:01.961Z,7.43
2023-03-21T05:03:09.129Z,7.05
2023-03-21T05:06:12.385Z,7.40
2023-03-21T05:09:14.990Z,7.27
2023-03-21T05:12:19.493Z,7.70
2023-03-21T05:15:22.071Z,8.00
2023-03-21T05:18:25.322Z,7.00
2023-03-21T05:21:41.308Z,7.43
2023-03-21T05:24:50.367Z,8.18
2023-03-21T05:27:55.608Z,8.02
2023-03-21T05:30:59.556Z,7.45
2023-03-21T05:34:02.850Z,8.23
2023-03-21T05:37:08.748Z,8.32
2023-03-21T05:40:12.280Z,9.10
2023-03-21T05:43:17.170Z,9.05
2023-03-21T05:46:21.028Z,7.57
2023-03-21T05:49:24.616Z,7.72
2023-03-21T05:52:29.708Z,7.78
2023-03-21T05:55:33.329Z,7.78
2023-03-21T05:58:39.918Z,9.40
2023-03-21T06:04:46.608Z,8.20
2023-03-21T06:07:49.506Z,7.95
2023-03-21T06:10:52.564Z,8.80
2023-03-21T06:13:55.555Z,9.55
2023-03-21T06:16:58.843Z,8.10
2023-03-21T06:20:04.465Z,7.80
2023-03-21T06:23:08.602Z,8.10
2023-03-21T06:26:11.585Z,7.68
2023-03-21T06:29:14.784Z,6.35
2023-03-21T06:32:18.833Z,7.37
2023-03-21T06:35:22.175Z,6.68
2023-03-21T06:38:26.352Z,7.28
2023-03-21T06:41:30.172Z,7.22
2023-03-21T06:44:33.789Z,7.03
2023-03-21T06:47:37.252Z,7.47
2023-03-21T06:50:40.908Z,7.50
2023-03-21T06:56:49.032Z,7.68
2023-03-21T06:59:55.265Z,6.53
2023-03-21T07:02:59.014Z,6.35
2023-03-21T07:09:17.934Z,7.43
2023-03-21T07:12:22.619Z,8.05
2023-03-21T07:15:27.454Z,7.28
2023-03-21T07:18:31.564Z,7.28
2023-03-21T07:21:34.561Z,7.22
2023-03-21T07:24:37.468Z,7.43
2023-03-21T07:27:41.324Z,7.18
2023-03-21T07:30:45.827Z,6.90
2023-03-21T07:33:51.098Z,6.65
2023-03-21T07:36:53.947Z,6.70
2023-03-21T07:39:56.826Z,6.62
2023-03-21T07:46:08.607Z,7.20
2023-03-21T07:49:11.473Z,6.75
2023-03-21T07:52:14.264Z,6.28
2023-03-21T07:55:17.486Z,6.60
2023-03-21T07:58:20.355Z,5.90
2023-03-21T08:01:23.504Z,5.82
2023-03-21T08:04:26.602Z,10.18
2023-03-21T08:10:32.106Z,5.50
2023-03-21T08:13:34.788Z,4.70
2023-03-21T08:16:37.999Z,5.47
2023-03-21T08:19:40.499Z,4.07
2023-03-21T08:22:44.211Z,4.85
2023-03-21T08:25:46.997Z,5.10
2023-03-21T08:28:50.209Z,4.43
2023-03-21T08:31:53.041Z,3.80
2023-03-21T08:34:59.536Z,3.85
2023-03-21T08:38:03.865Z,3.47
2023-03-21T08:41:07.250Z,3.78
2023-03-21T08:44:10.902Z,7.50
2023-03-21T08:47:14.478Z,4.90
2023-03-21T08:50:20.333Z,3.62
2023-03-21T08:53:23.480Z,3.03
2023-03-21T08:56:26.269Z,3.78
2023-03-21T08:59:29.516Z,5.03
2023-03-21T09:02:32.188Z,3.70
2023-03-21T09:05:36.877Z,4.03
2023-03-21T09:08:41.872Z,3.22
2023-03-21T09:11:45.142Z,2.58
2023-03-21T09:14:47.908Z,2.50
2023-03-21T09:17:53.275Z,2.70
2023-03-21T09:20:56.518Z,2.25
2023-03-21T09:24:00.693Z,2.28
2023-03-21T09:27:03.230Z,2.72
2023-03-21T09:30:07.561Z,2.70
2023-03-21T09:33:19.450Z,2.62
2023-03-21T09:36:24.863Z,4.95
2023-03-21T09:39:27.747Z,3.00
2023-03-21T09:42:49.341Z,2.70
2023-03-21T09:46:03.955Z,2.53
2023-03-21T09:49:31.343Z,2.97
2023-03-21T09:52:43.724Z,3.15
2023-03-21T09:55:47.540Z,3.00
2023-03-21T09:58:54.790Z,2.40
2023-03-21T10:02:00.240Z,2.12
2023-03-21T10:05:11.833Z,2.47
2023-03-21T10:08:24.925Z,2.87
2023-03-21T10:11:37.776Z,3.10
2023-03-21T10:14:51.740Z,2.55
2023-03-21T10:18:05.421Z,12.35
2023-03-21T10:21:29.260Z,4.95
2023-03-21T10:24:39.380Z,8.50
2023-03-21T10:27:43.205Z,3.60
2023-03-21T10:30:54.856Z,3.20
2023-03-21T10:34:03.260Z,2.95
2023-03-21T10:37:06.819Z,2.62
2023-03-21T10:40:16.554Z,2.35
2023-03-21T10:43:29.861Z,2.92
2023-03-21T10:46:35.912Z,2.40
2023-03-21T10:50:05.709Z,2.47
2023-03-21T10:53:03.692Z,2.60
2023-03-21T10:56:10.532Z,1.90
2023-03-21T10:59:20.958Z,1.80
2023-03-21T11:02:32.425Z,9.93
2023-03-21T11:05:42.083Z,3.00
2023-03-21T11:08:49.585Z,1.85
2023-03-21T11:12:05.826Z,1.70
2023-03-21T11:15:41.628Z,2.08
2023-03-21T11:18:50.312Z,2.42
2023-03-21T11:21:53.594Z,2.65
2023-03-21T11:25:06.373Z,2.72
2023-03-21T11:28:14.388Z,2.25
2023-03-21T11:31:18.136Z,2.85
2023-03-21T11:34:28.943Z,2.62
2023-03-21T11:37:34.324Z,2.90
2023-03-21T11:40:39.593Z,2.33
2023-03-21T11:43:52.049Z,3.17
2023-03-21T11:46:55.526Z,3.17
2023-03-21T11:50:05.001Z,3.40
2023-03-21T11:53:40.540Z,3.30
2023-03-21T11:57:39.146Z,3.00
2023-03-21T12:00:59.436Z,3.12
2023-03-21T12:04:31.820Z,2.53
2023-03-21T12:07:40.451Z,3.00
2023-03-21T12:10:54.347Z,3.22
2023-03-21T12:14:04.626Z,3.12
2023-03-21T12:17:23.237Z,3.10
2023-03-21T12:20:39.368Z,2.87
2023-03-21T12:23:45.594Z,3.50
2023-03-21T12:27:19.543Z,2.55
2023-03-21T12:30:37.431Z,8.63
2023-03-21T12:33:44.118Z,8.13
2023-03-21T12:36:58.627Z,3.37
2023-03-21T12:40:35.462Z,3.58
2023-03-21T12:44:04.664Z,3.00
2023-03-21T12:47:11.236Z,2.78
2023-03-21T12:50:25.015Z,3.25
2023-03-21T12:53:41.738Z,2.97
2023-03-21T12:57:07.419Z,3.25
2023-03-21T13:00:17.693Z,2.83
2023-03-21T13:03:30.635Z,2.40
2023-03-21T13:06:41.915Z,2.20
2023-03-21T13:09:46.464Z,2.45
2023-03-21T13:13:12.703Z,4.20
2023-03-21T13:16:15.827Z,3.20
2023-03-21T13:19:27.432Z,2.45
2023-03-21T13:22:32.027Z,2.57
2023-03-21T13:25:47.018Z,2.20
2023-03-21T13:28:50.303Z,1.77
2023-03-21T13:31:57.340Z,2.00
2023-03-21T13:35:13.632Z,1.90
2023-03-21T13:38:26.602Z,1.70
2023-03-21T13:41:39.184Z,1.98
2023-03-21T13:44:50.376Z,2.28
2023-03-21T13:48:04.644Z,2.22
2023-03-21T13:51:07.768Z,2.33
2023-03-21T13:54:13.963Z,1.80
2023-03-21T13:57:38.739Z,1.90
2023-03-21T14:00:41.951Z,2.10
2023-03-21T14:03:47.074Z,2.45
2023-03-21T14:07:09.302Z,1.95
2023-03-21T14:10:34.730Z,2.10
2023-03-21T14:13:50.950Z,2.25
2023-03-21T14:16:54.660Z,2.25
2023-03-21T14:20:01.780Z,2.30
2023-03-21T14:23:06.713Z,1.70
2023-03-21T14:26:12.150Z,2.12
2023-03-21T14:29:31.614Z,1.90
2023-03-21T14:32:35.456Z,1.37
2023-03-21T14:35:42.311Z,1.70
2023-03-21T14:38:58.721Z,1.75
2023-03-21T14:42:05.469Z,2.20
2023-03-21T14:45:25.954Z,2.45
2023-03-21T14:48:31.666Z,1.75
2023-03-21T14:51:34.596Z,2.45
2023-03-21T14:54:40.913Z,2.10
2023-03-21T14:57:44.168Z,2.05
2023-03-21T15:00:51.171Z,2.80
2023-03-21T15:03:54.641Z,2.30
2023-03-21T15:07:04.974Z,1.85
2023-03-21T15:10:18.225Z,1.92
2023-03-21T15:13:26.744Z,1.70
2023-03-21T15:16:31.353Z,1.92
2023-03-21T15:19:37.697Z,4.00
2023-03-21T15:22:46.000Z,4.03
2023-03-21T15:25:48.953Z,2.95
2023-03-21T15:31:59.706Z,2.97
2023-03-21T15:35:08.998Z,3.08
2023-03-21T15:38:23.914Z,3.22
2023-03-21T15:41:30.119Z,3.35
2023-03-21T15:44:35.180Z,3.33
2023-03-21T15:47:59.093Z,3.40
2023-03-21T15:51:05.986Z,3.28
2023-03-21T15:54:55.950Z,3.47
2023-03-21T15:58:04.407Z,3.22
2023-03-21T16:01:14.963Z,3.37
2023-03-21T16:04:21.138Z,3.50
2023-03-21T16:07:24.542Z,3.65
2023-03-21T16:10:34.147Z,3.40
2023-03-21T16:13:37.231Z,3.10
2023-03-21T16:16:40.844Z,3.33
2023-03-21T16:19:45.172Z,4.72
2023-03-21T16:22:48.948Z,6.53
2023-03-21T16:29:01.517Z,8.95
2023-03-21T16:35:10.005Z,6.05
2023-03-21T16:38:13.018Z,4.97
2023-03-21T16:41:17.069Z,4.53
2023-03-21T16:44:20.718Z,4.53
2023-03-21T16:47:24.283Z,4.40
2023-03-21T16:53:31.473Z,4.22
2023-03-21T16:56:44.158Z,4.32
2023-03-21T16:59:47.503Z,3.95
2023-03-21T17:02:51.928Z,4.57
2023-03-21T17:05:56.359Z,4.72
2023-03-21T17:08:58.971Z,5.22
2023-03-21T17:12:02.542Z,5.00
2023-03-21T17:15:05.570Z,5.20
2023-03-21T17:18:10.421Z,4.75
2023-03-21T17:21:18.283Z,4.60
2023-03-21T17:24:21.500Z,4.68
2023-03-21T17:27:24.029Z,5.12
2023-03-21T17:33:34.014Z,4.82
2023-03-21T17:36:39.431Z,5.05
2023-03-21T17:39:42.930Z,5.35
2023-03-21T17:42:46.993Z,4.68
2023-03-21T17:45:49.746Z,5.37
2023-03-21T17:48:53.418Z,5.30
2023-03-21T17:54:58.798Z,9.40
2023-03-21T17:58:01.720Z,7.97
2023-03-21T18:01:05.146Z,10.90
2023-03-21T18:04:08.229Z,9.52
2023-03-21T18:10:27.566Z,7.93
2023-03-21T18:13:30.379Z,7.45
2023-03-21T18:16:33.494Z,6.95
2023-03-21T18:22:41.759Z,7.00
2023-03-21T18:25:44.806Z,7.70
2023-03-21T18:32:10.999Z,7.57
2023-03-21T18:38:18.394Z,7.45
2023-03-21T18:41:22.800Z,7.12
2023-03-21T18:44:25.857Z,6.85
2023-03-21T18:47:29.300Z,6.25
2023-03-21T18:50:34.226Z,5.45
2023-03-21T18:53:38.002Z,6.20
2023-03-21T19:00:12.813Z,6.00
2023-03-21T19:03:24.858Z,6.30
2023-03-21T19:06:36.133Z,6.32
2023-03-21T19:10:01.579Z,5.62
2023-03-21T19:13:04.238Z,6.45
2023-03-21T19:16:11.055Z,6.28
2023-03-21T19:19:18.374Z,6.00
2023-03-21T19:22:21.324Z,5.47
2023-03-21T19:25:24.506Z,6.05
2023-03-21T19:28:28.148Z,5.95
2023-03-21T19:31:31.501Z,5.60
2023-03-21T19:34:34.464Z,6.22
2023-03-21T19:37:37.697Z,6.05
2023-03-21T19:40:42.066Z,5.60
2023-03-21T19:43:53.726Z,5.95
2023-03-21T19:46:57.286Z,6.35
2023-03-21T19:53:23.177Z,9.85
2023-03-21T19:56:27.556Z,6.70
2023-03-21T19:59:32.108Z,6.12
2023-03-21T20:02:36.784Z,5.57
2023-03-21T20:05:40.731Z,5.47
2023-03-21T20:09:23.969Z,5.00
2023-03-21T20:12:09.933Z,5.75
2023-03-21T20:15:19.299Z,5.40
2023-03-21T20:18:26.997Z,5.55
2023-03-21T20:21:35.096Z,5.87
2023-03-21T20:24:45.810Z,6.65
2023-03-21T20:28:06.026Z,4.97
2023-03-21T20:34:18.118Z,5.80
2023-03-21T20:37:21.393Z,5.60
2023-03-21T20:40:24.235Z,6.20
2023-03-21T20:46:51.277Z,6.75
2023-03-21T20:49:56.810Z,6.50
2023-03-21T20:53:07.018Z,6.00
2023-03-21T20:56:11.458Z,6.28
2023-03-21T20:59:24.439Z,5.95
2023-03-21T21:02:28.305Z,5.53
2023-03-21T21:05:34.837Z,6.25
2023-03-21T21:08:38.845Z,6.32
2023-03-21T21:15:07.909Z,6.55
2023-03-21T21:18:13.701Z,6.18
2023-03-21T21:21:19.773Z,8.40
2023-03-21T21:24:22.387Z,9.90
2023-03-21T21:27:26.104Z,8.75
2023-03-21T21:30:29.526Z,7.68
2023-03-21T21:33:34.433Z,7.22
2023-03-21T21:36:37.425Z,7.65
2023-03-21T21:39:42.081Z,9.07
2023-03-21T21:42:45.086Z,7.87
2023-03-21T21:45:49.086Z,7.75
2023-03-21T21:48:51.762Z,7.53
2023-03-21T21:51:56.345Z,7.68
2023-03-21T21:54:58.939Z,8.23
2023-03-21T21:58:03.966Z,7.87
2023-03-21T22:01:07.207Z,7.60
2023-03-21T22:04:11.446Z,8.60
2023-03-21T22:07:14.384Z,8.18
2023-03-21T22:10:19.428Z,8.63
2023-03-21T22:13:22.058Z,7.62
2023-03-21T22:16:25.355Z,7.95
2023-03-21T22:19:28.630Z,8.75
2023-03-21T22:22:32.748Z,8.25
2023-03-21T22:25:35.335Z,9.10
2023-03-21T22:31:46.064Z,8.98
2023-03-21T22:34:49.555Z,9.73
2023-03-21T22:37:52.127Z,9.43
2023-03-21T22:40:59.564Z,9.05
2023-03-21T22:44:02.340Z,9.07
2023-03-21T22:47:08.873Z,8.65
2023-03-21T22:50:11.709Z,9.80
2023-03-21T22:53:15.505Z,9.10
2023-03-21T22:56:18.179Z,9.40
2023-03-21T22:59:21.925Z,10.32
2023-03-21T23:02:24.693Z,10.05
2023-03-21T23:08:30.776Z,10.07
2023-03-21T23:11:33.913Z,11.30
2023-03-21T23:14:36.453Z,11.12
2023-03-21T23:17:39.633Z,11.05
2023-03-21T23:20:42.629Z,11.02
2023-03-21T23:23:49.871Z,11.73
2023-03-21T23:26:53.027Z,11.20
2023-03-21T23:29:56.931Z,10.52
2023-03-21T23:32:59.484Z,11.25
2023-03-21T23:39:06.644Z,10.95
2023-03-21T23:42:09.827Z,11.32
2023-03-21T23:45:12.600Z,11.38
2023-03-21T23:48:15.951Z,11.70
2023-03-21T23:51:19.474Z,11.43
2023-03-21T23:54:22.668Z,11.70
2023-03-21T23:57:25.342Z,12.20
